createdAt,value
2018-09-12T00:00:56.719Z,99.90
2018-09-12T00:03:23.968Z,99.90
2018-09-12T00:05:51.202Z,99.90
2018-09-12T00:08:18.488Z,99.90
2018-09-12T00:10:45.703Z,99.90
2018-09-12T00:13:12.939Z,99.90
2018-09-12T00:15:40.200Z,99.90
2018-09-12T00:18:07.420Z,99.90
2018-09-12T00:20:34.642Z,99.90
2018-09-12T00:23:01.885Z,99.90
2018-09-12T00:25:29.123Z,99.90
2018-09-12T00:27:56.341Z,99.90
2018-09-12T00:30:23.583Z,99.90
2018-09-12T00:32:50.853Z,99.90
2018-09-12T00:35:18.092Z,99.90
2018-09-12T00:37:45.336Z,99.90
2018-09-12T00:40:12.594Z,99.90
2018-09-12T00:42:39.802Z,99.90
2018-09-12T00:45:07.051Z,99.90
2018-09-12T00:47:34.516Z,99.90
2018-09-12T00:50:01.848Z,99.90
2018-09-12T00:52:29.079Z,99.90
2018-09-12T00:54:56.328Z,99.90
2018-09-12T00:57:23.566Z,99.90
2018-09-12T00:59:50.784Z,99.90
2018-09-12T01:02:18.023Z,99.90
2018-09-12T01:04:45.246Z,99.90
2018-09-12T01:07:12.499Z,99.90
2018-09-12T01:09:39.723Z,99.90
2018-09-12T01:12:06.957Z,99.90
2018-09-12T01:14:34.163Z,99.90
2018-09-12T01:17:01.422Z,99.90
2018-09-12T01:19:29.359Z,99.90
2018-09-12T01:21:56.602Z,99.90
2018-09-12T01:24:23.872Z,99.90
2018-09-12T01:26:51.119Z,99.90
2018-09-12T01:29:18.441Z,99.90
2018-09-12T01:31:45.680Z,99.90
2018-09-12T01:34:12.890Z,99.90
2018-09-12T01:36:40.396Z,99.90
2018-09-12T01:39:08.600Z,99.90
2018-09-12T01:41:35.925Z,99.90
2018-09-12T01:44:03.190Z,99.90
2018-09-12T01:46:30.424Z,99.90
2018-09-12T01:48:57.689Z,99.90
2018-09-12T01:51:24.970Z,99.90
2018-09-12T01:53:52.197Z,99.90
2018-09-12T01:56:19.447Z,99.90
2018-09-12T01:58:46.703Z,99.90
2018-09-12T02:01:13.960Z,99.90
2018-09-12T02:03:41.180Z,99.90
2018-09-12T02:06:08.427Z,99.90
2018-09-12T02:08:35.955Z,99.90
2018-09-12T02:11:03.263Z,99.90
2018-09-12T02:13:30.571Z,99.90
2018-09-12T02:15:57.823Z,99.90
2018-09-12T02:18:25.079Z,99.90
2018-09-12T02:20:52.313Z,99.90
2018-09-12T02:23:19.565Z,99.90
2018-09-12T02:25:46.814Z,99.90
2018-09-12T02:28:14.072Z,99.90
2018-09-12T02:30:41.332Z,99.90
2018-09-12T02:33:08.582Z,99.90
2018-09-12T02:35:40.380Z,99.90
2018-09-12T02:38:07.608Z,99.90
2018-09-12T02:40:34.855Z,99.90
2018-09-12T02:43:02.133Z,99.90
2018-09-12T02:45:29.372Z,99.90
2018-09-12T02:47:56.584Z,99.90
2018-09-12T02:50:23.869Z,99.90
2018-09-12T02:52:51.103Z,99.90
2018-09-12T02:55:18.310Z,99.90
2018-09-12T02:57:45.513Z,99.90
2018-09-12T03:00:12.797Z,99.90
2018-09-12T03:02:40.043Z,99.90
2018-09-12T03:05:07.279Z,99.90
2018-09-12T03:07:34.539Z,99.90
2018-09-12T03:10:01.867Z,99.90
2018-09-12T03:12:29.120Z,99.90
2018-09-12T03:14:56.407Z,99.90
2018-09-12T03:17:24.697Z,99.90
2018-09-12T03:19:51.950Z,99.90
2018-09-12T03:22:19.219Z,99.90
2018-09-12T03:24:46.462Z,99.90
2018-09-12T03:27:13.684Z,99.90
2018-09-12T03:29:40.915Z,99.90
2018-09-12T03:32:08.142Z,99.90
2018-09-12T03:34:35.453Z,99.90
2018-09-12T03:37:02.710Z,99.90
2018-09-12T03:39:29.947Z,99.90
2018-09-12T03:41:57.188Z,99.90
2018-09-12T03:44:25.839Z,99.90
2018-09-12T03:46:53.318Z,99.90
2018-09-12T03:49:20.609Z,99.90
2018-09-12T03:51:47.889Z,99.90
2018-09-12T03:54:15.155Z,99.90
2018-09-12T03:56:42.737Z,99.90
2018-09-12T03:59:10.252Z,99.90
2018-09-12T04:01:37.563Z,99.90
2018-09-12T04:04:05.218Z,99.90
2018-09-12T04:06:32.724Z,99.90
2018-09-12T04:09:00.002Z,99.90
2018-09-12T04:11:27.678Z,99.90
2018-09-12T04:13:55.188Z,99.90
2018-09-12T04:16:22.460Z,99.90
2018-09-12T04:18:49.949Z,99.90
2018-09-12T04:21:17.346Z,99.90
2018-09-12T04:23:44.669Z,99.90
2018-09-12T04:26:12.093Z,99.90
2018-09-12T04:28:39.365Z,99.90
2018-09-12T04:31:06.784Z,99.90
2018-09-12T04:33:34.120Z,99.90
2018-09-12T04:36:01.372Z,99.90
2018-09-12T04:38:28.655Z,99.90
2018-09-12T04:40:55.925Z,99.90
2018-09-12T04:43:23.216Z,99.90
2018-09-12T04:45:50.435Z,99.90
2018-09-12T04:48:17.774Z,99.90
2018-09-12T04:50:44.993Z,99.90
2018-09-12T04:53:12.265Z,99.90
2018-09-12T04:55:39.534Z,99.90
2018-09-12T04:58:06.867Z,99.90
2018-09-12T05:00:34.179Z,99.90
2018-09-12T05:03:01.406Z,99.90
2018-09-12T05:05:28.661Z,99.90
2018-09-12T05:07:55.919Z,99.90
2018-09-12T05:10:23.131Z,99.90
2018-09-12T05:12:50.397Z,99.90
2018-09-12T05:15:17.660Z,99.90
2018-09-12T05:17:44.972Z,99.90
2018-09-12T05:20:12.196Z,99.90
2018-09-12T05:22:39.420Z,99.90
2018-09-12T05:25:06.694Z,99.90
2018-09-12T05:27:33.987Z,99.90
2018-09-12T05:30:01.257Z,99.90
2018-09-12T05:32:28.537Z,99.90
2018-09-12T05:34:55.821Z,99.90
2018-09-12T05:37:23.144Z,99.90
2018-09-12T05:39:50.491Z,99.90
2018-09-12T05:42:17.754Z,99.90
2018-09-12T05:44:45.104Z,99.90
2018-09-12T05:47:12.357Z,99.90
2018-09-12T05:49:39.651Z,99.90
2018-09-12T05:52:06.984Z,99.90
2018-09-12T05:54:34.299Z,99.90
2018-09-12T05:57:01.535Z,99.90
2018-09-12T05:59:28.779Z,99.90
2018-09-12T06:01:56.030Z,99.90
2018-09-12T06:04:23.348Z,99.90
2018-09-12T06:06:50.622Z,99.90
2018-09-12T06:09:17.789Z,99.90
2018-09-12T06:11:45.013Z,99.90
2018-09-12T06:14:12.366Z,99.90
2018-09-12T06:16:39.643Z,99.90
2018-09-12T06:19:06.957Z,99.90
2018-09-12T06:21:34.429Z,99.90
2018-09-12T06:24:01.743Z,99.90
2018-09-12T06:26:28.983Z,99.90
2018-09-12T06:28:56.201Z,99.90
2018-09-12T06:31:23.426Z,99.90
2018-09-12T06:33:50.709Z,99.90
2018-09-12T06:36:17.953Z,99.90
2018-09-12T06:38:45.248Z,99.90
2018-09-12T06:41:12.468Z,99.90
2018-09-12T06:43:39.791Z,99.90
2018-09-12T06:46:07.007Z,99.90
2018-09-12T06:48:34.244Z,99.90
2018-09-12T06:51:01.537Z,99.90
2018-09-12T06:53:28.968Z,99.90
2018-09-12T06:55:56.367Z,99.90
2018-09-12T06:58:23.615Z,99.90
2018-09-12T07:00:50.920Z,99.90
2018-09-12T07:03:18.099Z,99.90
2018-09-12T07:05:45.338Z,99.90
2018-09-12T07:08:12.615Z,99.90
2018-09-12T07:10:39.869Z,99.90
2018-09-12T07:13:07.111Z,99.90
2018-09-12T07:15:34.388Z,99.90
2018-09-12T07:18:01.669Z,99.90
2018-09-12T07:20:28.968Z,99.90
2018-09-12T07:22:56.246Z,99.90
2018-09-12T07:25:23.507Z,99.90
2018-09-12T07:27:50.769Z,99.90
2018-09-12T07:30:18.067Z,99.90
2018-09-12T07:32:45.318Z,99.90
2018-09-12T07:35:12.599Z,98.60
2018-09-12T07:37:39.856Z,97.40
2018-09-12T07:40:07.147Z,97.00
2018-09-12T07:42:34.487Z,94.80
2018-09-12T07:45:01.827Z,93.60
2018-09-12T07:47:29.027Z,92.60
2018-09-12T07:49:56.271Z,90.30
2018-09-12T07:52:23.532Z,88.10
2018-09-12T07:54:50.767Z,84.70
2018-09-12T07:57:18.031Z,81.20
2018-09-12T07:59:45.305Z,80.00
2018-09-12T08:02:12.555Z,81.80
2018-09-12T08:04:39.813Z,73.00
2018-09-12T08:07:07.031Z,67.70
2018-09-12T08:09:34.248Z,70.70
2018-09-12T08:12:01.499Z,64.00
2018-09-12T08:14:28.719Z,63.00
2018-09-12T08:16:55.945Z,58.90
2018-09-12T08:19:23.203Z,57.10
2018-09-12T08:21:50.510Z,72.90
2018-09-12T08:24:17.744Z,51.60
2018-09-12T08:26:45.009Z,53.00
2018-09-12T08:29:12.232Z,84.90
2018-09-12T08:31:39.457Z,49.80
2018-09-12T08:39:01.212Z,45.50
2018-09-12T08:43:55.708Z,43.20
2018-09-12T08:46:22.952Z,43.50
2018-09-12T08:48:50.233Z,48.20
2018-09-12T08:51:17.464Z,39.50
2018-09-12T08:53:44.710Z,40.40
2018-09-12T08:56:11.968Z,40.50
2018-09-12T08:58:39.300Z,37.50
2018-09-12T09:01:06.568Z,37.00
2018-09-12T09:03:33.815Z,35.00
2018-09-12T09:06:01.065Z,35.80
2018-09-12T09:08:28.398Z,34.70
2018-09-12T09:10:55.691Z,34.90
2018-09-12T09:13:22.932Z,34.70
2018-09-12T09:15:50.160Z,34.40
2018-09-12T09:18:17.428Z,34.10
2018-09-12T09:20:44.747Z,32.50
2018-09-12T09:23:11.981Z,31.70
2018-09-12T09:25:39.223Z,31.90
2018-09-12T09:28:06.459Z,32.50
2018-09-12T09:30:33.836Z,29.50
2018-09-12T09:33:01.187Z,29.40
2018-09-12T09:35:29.204Z,29.90
2018-09-12T09:37:56.394Z,29.60
2018-09-12T09:40:23.664Z,29.10
2018-09-12T09:42:51.006Z,35.20
2018-09-12T09:47:45.593Z,33.70
2018-09-12T09:50:12.839Z,45.80
2018-09-12T09:52:40.079Z,48.00
2018-09-12T09:55:07.404Z,46.80
2018-09-12T09:57:35.252Z,26.70
2018-09-12T10:00:02.635Z,26.60
2018-09-12T10:02:35.636Z,26.70
2018-09-12T10:07:13.448Z,27.10
2018-09-12T10:09:40.705Z,27.80
2018-09-12T10:12:07.945Z,27.70
2018-09-12T10:14:35.222Z,27.20
2018-09-12T10:17:02.522Z,26.60
2018-09-12T10:34:13.919Z,53.20
2018-09-12T10:36:41.189Z,25.30
2018-09-12T10:39:10.357Z,25.10
2018-09-12T10:41:37.673Z,25.20
2018-09-12T10:44:05.068Z,24.30
2018-09-12T10:49:01.885Z,32.20
2018-09-12T11:01:18.282Z,40.60
2018-09-12T11:03:45.672Z,22.90
2018-09-12T11:06:13.014Z,23.30
2018-09-12T11:08:40.244Z,22.90
2018-09-12T11:11:07.492Z,22.90
2018-09-12T11:13:34.796Z,23.00
2018-09-12T11:16:02.092Z,23.40
2018-09-12T11:18:29.400Z,22.30
2018-09-12T11:20:56.745Z,22.20
2018-09-12T11:23:24.332Z,22.40
2018-09-12T11:25:51.579Z,23.20
2018-09-12T11:28:18.888Z,23.20
2018-09-12T11:30:46.151Z,23.10
2018-09-12T11:33:13.432Z,22.50
2018-09-12T11:35:40.738Z,22.90
2018-09-12T11:38:08.049Z,23.00
2018-09-12T11:40:35.345Z,22.10
2018-09-12T11:50:26.595Z,50.60
2018-09-12T11:52:53.843Z,21.30
2018-09-12T12:05:10.232Z,37.60
2018-09-12T12:07:37.499Z,21.00
2018-09-12T12:10:04.800Z,20.20
2018-09-12T12:14:59.328Z,22.70
2018-09-12T12:17:26.597Z,25.50
2018-09-12T12:19:53.892Z,23.10
2018-09-12T12:22:21.104Z,20.80
2018-09-12T12:24:48.337Z,21.40
2018-09-12T12:27:15.578Z,21.90
2018-09-12T12:29:42.818Z,21.80
2018-09-12T12:32:10.068Z,21.20
2018-09-12T12:34:37.328Z,21.20
2018-09-12T12:37:04.657Z,21.20
2018-09-12T12:39:31.946Z,21.60
2018-09-12T12:41:59.275Z,21.60
2018-09-12T12:46:53.817Z,20.20
2018-09-12T12:49:21.108Z,20.50
2018-09-12T12:51:48.346Z,20.80
2018-09-12T12:54:15.568Z,21.20
2018-09-12T12:56:42.862Z,21.70
2018-09-12T12:59:10.176Z,21.30
2018-09-12T13:01:37.480Z,21.30
2018-09-12T13:04:04.769Z,20.70
2018-09-12T13:06:32.017Z,21.10
2018-09-12T13:08:59.346Z,19.90
2018-09-12T13:11:26.591Z,20.20
2018-09-12T13:13:53.860Z,20.50
2018-09-12T13:16:21.099Z,20.30
2018-09-12T13:18:48.374Z,20.70
2018-09-12T13:21:15.770Z,21.00
2018-09-12T13:23:42.972Z,21.30
2018-09-12T13:26:10.257Z,21.60
2018-09-12T13:28:37.555Z,21.70
2018-09-12T13:31:04.916Z,21.20
2018-09-12T13:33:32.171Z,21.50
2018-09-12T13:35:59.406Z,21.10
2018-09-12T13:38:26.700Z,21.00
2018-09-12T13:40:54.004Z,20.40
2018-09-12T13:43:21.257Z,34.90
2018-09-12T13:45:48.517Z,19.60
2018-09-12T13:50:44.580Z,19.10
2018-09-12T13:58:08.376Z,45.30
2018-09-12T14:00:35.708Z,29.60
2018-09-12T14:03:03.364Z,19.10
2018-09-12T14:17:49.928Z,38.40
2018-09-12T14:20:17.249Z,19.70
2018-09-12T14:22:44.658Z,20.30
2018-09-12T14:25:12.003Z,19.90
2018-09-12T14:27:39.166Z,19.60
2018-09-12T14:30:06.443Z,19.80
2018-09-12T14:32:33.756Z,19.80
2018-09-12T14:35:01.766Z,20.10
2018-09-12T14:37:29.089Z,19.90
2018-09-12T14:39:56.413Z,19.70
2018-09-12T14:42:23.742Z,19.70
2018-09-12T14:44:51.016Z,19.80
2018-09-12T14:47:18.308Z,19.80
2018-09-12T14:49:45.627Z,19.90
2018-09-12T14:52:12.940Z,19.40
2018-09-12T14:54:40.220Z,20.00
2018-09-12T14:57:07.535Z,20.30
2018-09-12T14:59:34.777Z,19.80
2018-09-12T15:02:02.046Z,20.10
2018-09-12T15:04:29.336Z,20.50
2018-09-12T15:06:56.571Z,21.10
2018-09-12T15:09:23.851Z,20.90
2018-09-12T15:11:52.076Z,21.00
2018-09-12T15:14:19.652Z,21.00
2018-09-12T15:16:47.091Z,21.20
2018-09-12T15:19:14.328Z,21.70
2018-09-12T15:21:41.600Z,21.90
2018-09-12T15:24:09.211Z,22.00
2018-09-12T15:26:36.550Z,22.80
2018-09-12T15:29:03.888Z,21.70
2018-09-12T15:31:31.268Z,22.70
2018-09-12T15:33:58.566Z,22.20
2018-09-12T15:36:25.864Z,22.70
2018-09-12T15:38:53.215Z,22.00
2018-09-12T15:41:20.512Z,21.90
2018-09-12T15:43:47.800Z,21.40
2018-09-12T15:46:15.016Z,21.40
2018-09-12T15:48:42.331Z,21.90
2018-09-12T15:51:09.576Z,21.90
2018-09-12T15:53:36.840Z,22.10
2018-09-12T15:56:04.111Z,22.20
2018-09-12T15:58:31.428Z,22.10
2018-09-12T16:00:58.771Z,22.20
2018-09-12T16:05:53.395Z,50.00
2018-09-12T16:08:20.616Z,23.20
2018-09-12T16:13:15.098Z,23.60
2018-09-12T16:15:42.388Z,24.40
2018-09-12T16:18:09.630Z,24.60
2018-09-12T16:20:36.852Z,24.80
2018-09-12T16:23:04.272Z,25.10
2018-09-12T16:27:58.697Z,26.30
2018-09-12T16:30:27.304Z,45.20
2018-09-12T16:35:24.383Z,27.60
2018-09-12T16:40:19.993Z,28.30
2018-09-12T16:42:47.315Z,29.10
2018-09-12T16:45:14.587Z,29.50
2018-09-12T16:47:41.826Z,30.60
2018-09-12T16:50:09.132Z,30.60
2018-09-12T16:52:36.366Z,30.90
2018-09-12T16:55:03.851Z,31.30
2018-09-12T16:57:31.155Z,31.80
2018-09-12T16:59:58.375Z,32.10
2018-09-12T17:02:25.629Z,33.80
2018-09-12T17:04:52.838Z,32.80
2018-09-12T17:07:20.081Z,33.50
2018-09-12T17:09:47.293Z,33.40
2018-09-12T17:12:14.527Z,39.40
2018-09-12T17:14:41.751Z,34.10
2018-09-12T17:17:11.080Z,34.20
2018-09-12T17:19:38.344Z,34.60
2018-09-12T17:22:05.999Z,34.70
2018-09-12T17:24:34.271Z,36.20
2018-09-12T17:27:02.709Z,35.70
2018-09-12T17:29:31.756Z,36.00
2018-09-12T17:32:01.496Z,36.70
2018-09-12T17:34:28.804Z,36.10
2018-09-12T17:36:56.026Z,37.80
2018-09-12T17:39:28.002Z,39.00
2018-09-12T17:41:55.311Z,39.10
2018-09-12T17:44:24.673Z,39.10
2018-09-12T17:46:51.958Z,40.80
2018-09-12T17:49:19.247Z,39.70
2018-09-12T17:51:46.512Z,40.70
2018-09-12T17:54:13.796Z,42.00
2018-09-12T17:56:42.884Z,41.90
2018-09-12T17:59:10.136Z,42.60
2018-09-12T18:01:37.379Z,43.80
2018-09-12T18:04:04.676Z,44.90
2018-09-12T18:06:31.946Z,45.00
2018-09-12T18:08:59.240Z,45.60
2018-09-12T18:11:26.576Z,47.90
2018-09-12T18:13:53.804Z,52.50
2018-09-12T18:16:21.069Z,57.70
2018-09-12T18:18:48.365Z,49.70
2018-09-12T18:21:15.710Z,48.50
2018-09-12T18:23:42.985Z,49.50
2018-09-12T18:26:10.366Z,49.70
2018-09-12T18:28:37.703Z,50.80
2018-09-12T18:31:06.928Z,51.20
2018-09-12T18:33:34.419Z,52.60
2018-09-12T18:36:02.915Z,54.70
2018-09-12T18:38:30.191Z,55.40
2018-09-12T18:40:57.576Z,57.10
2018-09-12T18:43:25.039Z,57.20
2018-09-12T18:45:55.008Z,55.40
2018-09-12T18:48:22.356Z,56.30
2018-09-12T18:50:49.650Z,56.30
2018-09-12T18:53:17.028Z,58.20
2018-09-12T18:55:44.347Z,57.60
2018-09-12T18:58:11.886Z,59.50
2018-09-12T19:00:43.437Z,61.50
2018-09-12T19:03:10.816Z,63.90
2018-09-12T19:05:43.124Z,60.20
2018-09-12T19:08:13.737Z,62.30
2018-09-12T19:10:41.060Z,61.80
2018-09-12T19:13:10.278Z,62.60
2018-09-12T19:15:37.622Z,63.90
2018-09-12T19:18:04.980Z,63.40
2018-09-12T19:20:32.233Z,61.00
2018-09-12T19:22:59.687Z,60.30
2018-09-12T19:25:27.068Z,61.20
2018-09-12T19:27:58.398Z,62.20
2018-09-12T19:30:25.827Z,64.50
2018-09-12T19:32:54.660Z,65.30
2018-09-12T19:35:23.351Z,64.90
2018-09-12T19:38:00.943Z,68.40
2018-09-12T19:40:29.327Z,70.10
2018-09-12T19:42:58.532Z,71.90
2018-09-12T19:45:25.943Z,73.30
2018-09-12T19:47:53.825Z,72.60
2018-09-12T19:50:22.237Z,69.50
2018-09-12T19:52:50.024Z,68.20
2018-09-12T19:55:17.393Z,69.20
2018-09-12T19:57:45.867Z,70.70
2018-09-12T20:00:17.120Z,72.30
2018-09-12T20:02:47.177Z,75.20
2018-09-12T20:05:15.558Z,78.20
2018-09-12T20:07:43.021Z,79.00
2018-09-12T20:10:10.345Z,80.10
2018-09-12T20:12:37.620Z,78.90
2018-09-12T20:15:05.781Z,81.00
2018-09-12T20:17:33.432Z,85.40
2018-09-12T20:20:01.031Z,88.50
2018-09-12T20:22:28.666Z,90.10
2018-09-12T20:24:56.058Z,91.20
2018-09-12T20:27:23.779Z,91.50
2018-09-12T20:29:57.120Z,91.10
2018-09-12T20:32:24.758Z,91.30
2018-09-12T20:34:52.239Z,90.40
2018-09-12T20:37:19.486Z,89.10
2018-09-12T20:39:53.201Z,89.80
2018-09-12T20:42:24.078Z,90.70
2018-09-12T20:47:23.612Z,93.80
2018-09-12T20:49:50.944Z,96.60
2018-09-12T20:52:18.363Z,96.90
2018-09-12T20:54:45.620Z,97.90
2018-09-12T20:57:12.944Z,97.50
2018-09-12T20:59:40.171Z,98.40
2018-09-12T21:02:07.643Z,99.00
2018-09-12T21:04:34.924Z,98.70
2018-09-12T21:07:03.952Z,99.10
2018-09-12T21:09:31.493Z,99.60
2018-09-12T21:11:59.136Z,99.90
2018-09-12T21:14:26.424Z,99.70
2018-09-12T21:16:53.720Z,99.90
2018-09-12T21:19:20.941Z,99.90
2018-09-12T21:21:48.215Z,99.90
2018-09-12T21:24:15.449Z,99.90
2018-09-12T21:26:45.662Z,99.90
2018-09-12T21:29:13.007Z,99.90
2018-09-12T21:31:40.303Z,99.90
2018-09-12T21:34:07.540Z,99.90
2018-09-12T21:36:34.847Z,99.90
2018-09-12T21:39:06.728Z,99.90
2018-09-12T21:41:34.014Z,99.90
2018-09-12T21:44:01.226Z,99.90
2018-09-12T21:46:28.862Z,99.90
2018-09-12T21:48:56.116Z,99.90
2018-09-12T21:51:23.376Z,99.90
2018-09-12T21:53:50.616Z,99.90
2018-09-12T21:56:21.329Z,99.90
2018-09-12T21:58:48.612Z,99.90
2018-09-12T22:01:21.433Z,99.90
2018-09-12T22:03:49.412Z,99.90
2018-09-12T22:06:16.972Z,99.90
2018-09-12T22:08:44.245Z,99.90
2018-09-12T22:11:11.496Z,99.90
2018-09-12T22:13:38.901Z,99.90
2018-09-12T22:16:06.417Z,99.90
2018-09-12T22:18:35.367Z,99.90
2018-09-12T22:21:05.017Z,99.90
2018-09-12T22:23:34.532Z,99.90
2018-09-12T22:26:01.973Z,99.90
2018-09-12T22:28:29.315Z,99.90
2018-09-12T22:30:56.550Z,99.90
2018-09-12T22:33:23.853Z,99.90
2018-09-12T22:35:51.092Z,99.90
2018-09-12T22:41:32.884Z,99.90
2018-09-12T22:44:00.115Z,99.90
2018-09-12T22:46:48.863Z,99.90
2018-09-12T22:49:16.196Z,99.90
2018-09-12T22:51:43.456Z,99.90
2018-09-12T22:54:10.683Z,99.90
2018-09-12T22:56:38.314Z,99.90
2018-09-12T22:59:05.649Z,99.90
2018-09-12T23:01:33.545Z,99.90
2018-09-12T23:04:00.853Z,99.90
2018-09-12T23:06:28.128Z,99.90
2018-09-12T23:08:55.473Z,99.90
2018-09-12T23:11:22.804Z,99.90
2018-09-12T23:13:50.073Z,99.90
2018-09-12T23:16:17.332Z,99.90
2018-09-12T23:18:44.625Z,99.90
2018-09-12T23:21:14.317Z,99.90
2018-09-12T23:23:42.433Z,99.90
2018-09-12T23:26:09.782Z,99.90
2018-09-12T23:28:37.099Z,99.90
2018-09-12T23:31:04.440Z,99.90
2018-09-12T23:33:31.699Z,99.90
2018-09-12T23:35:59.545Z,99.90
2018-09-12T23:38:26.985Z,99.90
2018-09-12T23:40:54.284Z,99.90
2018-09-12T23:43:27.184Z,99.90
2018-09-12T23:45:55.965Z,99.90
2018-09-12T23:48:23.239Z,99.90
2018-09-12T23:50:50.524Z,99.90
2018-09-12T23:53:17.872Z,99.90
2018-09-12T23:55:46.232Z,99.90
2018-09-12T23:58:13.523Z,99.90
